sensor_id;sensor_type;location;lat;lon;timestamp;P1;durP1;ratioP1;P2;durP2;ratioP2
13493;SDS011;6819;50.886;4.332;2024-02-14T00:01:52;10.80;;;4.13;;
13493;SDS011;6819;50.886;4.332;2024-02-14T00:04:18;9.52;;;4.55;;
13493;SDS011;6819;50.886;4.332;2024-02-14T00:06:45;10.80;;;4.40;;
13493;SDS011;6819;50.886;4.332;2024-02-14T00:09:10;8.50;;;4.00;;
13493;SDS011;6819;50.886;4.332;2024-02-14T00:11:36;11.25;;;4.93;;
13493;SDS011;6819;50.886;4.332;2024-02-14T00:14:02;8.23;;;4.38;;
13493;SDS011;6819;50.886;4.332;2024-02-14T00:16:28;10.70;;;4.35;;
13493;SDS011;6819;50.886;4.332;2024-02-14T00:18:57;10.07;;;4.20;;
13493;SDS011;6819;50.886;4.332;2024-02-14T00:21:23;7.22;;;4.15;;
13493;SDS011;6819;50.886;4.332;2024-02-14T00:23:49;8.48;;;4.30;;
13493;SDS011;6819;50.886;4.332;2024-02-14T00:26:15;8.32;;;3.88;;
13493;SDS011;6819;50.886;4.332;2024-02-14T00:28:41;11.75;;;4.10;;
13493;SDS011;6819;50.886;4.332;2024-02-14T00:31:07;10.88;;;4.20;;
13493;SDS011;6819;50.886;4.332;2024-02-14T00:33:32;9.77;;;4.47;;
13493;SDS011;6819;50.886;4.332;2024-02-14T00:35:58;7.50;;;3.95;;
13493;SDS011;6819;50.886;4.332;2024-02-14T00:38:24;8.90;;;3.95;;
13493;SDS011;6819;50.886;4.332;2024-02-14T00:40:49;6.72;;;3.95;;
13493;SDS011;6819;50.886;4.332;2024-02-14T00:43:15;9.48;;;3.85;;
13493;SDS011;6819;50.886;4.332;2024-02-14T00:45:41;10.77;;;3.75;;
13493;SDS011;6819;50.886;4.332;2024-02-14T00:48:06;7.30;;;3.55;;
13493;SDS011;6819;50.886;4.332;2024-02-14T00:50:32;9.60;;;5.28;;
13493;SDS011;6819;50.886;4.332;2024-02-14T00:53:02;8.45;;;3.85;;
13493;SDS011;6819;50.886;4.332;2024-02-14T00:55:28;7.85;;;4.57;;
13493;SDS011;6819;50.886;4.332;2024-02-14T00:57:54;10.90;;;3.47;;
13493;SDS011;6819;50.886;4.332;2024-02-14T01:00:19;8.63;;;3.40;;
13493;SDS011;6819;50.886;4.332;2024-02-14T01:02:45;10.50;;;4.07;;
13493;SDS011;6819;50.886;4.332;2024-02-14T01:05:11;9.57;;;3.67;;
13493;SDS011;6819;50.886;4.332;2024-02-14T01:07:37;6.20;;;3.53;;
13493;SDS011;6819;50.886;4.332;2024-02-14T01:10:02;10.85;;;3.72;;
13493;SDS011;6819;50.886;4.332;2024-02-14T01:12:28;8.60;;;3.95;;
13493;SDS011;6819;50.886;4.332;2024-02-14T01:14:57;8.40;;;3.70;;
13493;SDS011;6819;50.886;4.332;2024-02-14T01:17:22;9.20;;;3.70;;
13493;SDS011;6819;50.886;4.332;2024-02-14T01:19:49;14.73;;;4.43;;
13493;SDS011;6819;50.886;4.332;2024-02-14T01:22:15;10.82;;;4.07;;
13493;SDS011;6819;50.886;4.332;2024-02-14T01:24:44;8.25;;;4.28;;
13493;SDS011;6819;50.886;4.332;2024-02-14T01:27:10;12.57;;;4.78;;
13493;SDS011;6819;50.886;4.332;2024-02-14T01:29:36;10.43;;;4.65;;
13493;SDS011;6819;50.886;4.332;2024-02-14T01:32:01;13.27;;;4.95;;
13493;SDS011;6819;50.886;4.332;2024-02-14T01:34:29;11.85;;;4.78;;
13493;SDS011;6819;50.886;4.332;2024-02-14T01:36:54;7.75;;;4.38;;
13493;SDS011;6819;50.886;4.332;2024-02-14T01:39:20;12.15;;;4.65;;
13493;SDS011;6819;50.886;4.332;2024-02-14T01:41:47;10.38;;;4.35;;
13493;SDS011;6819;50.886;4.332;2024-02-14T01:44:16;10.88;;;4.78;;
13493;SDS011;6819;50.886;4.332;2024-02-14T01:46:42;12.75;;;4.80;;
13493;SDS011;6819;50.886;4.332;2024-02-14T01:49:09;14.98;;;4.63;;
13493;SDS011;6819;50.886;4.332;2024-02-14T01:51:39;10.48;;;5.00;;
13493;SDS011;6819;50.886;4.332;2024-02-14T01:54:07;10.02;;;4.65;;
13493;SDS011;6819;50.886;4.332;2024-02-14T01:56:34;6.85;;;3.65;;
13493;SDS011;6819;50.886;4.332;2024-02-14T01:58:59;10.90;;;4.57;;
13493;SDS011;6819;50.886;4.332;2024-02-14T02:01:26;6.72;;;4.13;;
13493;SDS011;6819;50.886;4.332;2024-02-14T02:03:51;13.05;;;4.72;;
13493;SDS011;6819;50.886;4.332;2024-02-14T02:06:18;9.80;;;4.25;;
13493;SDS011;6819;50.886;4.332;2024-02-14T02:08:43;9.13;;;4.35;;
13493;SDS011;6819;50.886;4.332;2024-02-14T02:11:10;6.18;;;3.90;;
13493;SDS011;6819;50.886;4.332;2024-02-14T02:13:36;7.53;;;4.60;;
13493;SDS011;6819;50.886;4.332;2024-02-14T02:16:04;7.22;;;4.50;;
13493;SDS011;6819;50.886;4.332;2024-02-14T02:18:31;10.30;;;4.78;;
13493;SDS011;6819;50.886;4.332;2024-02-14T02:20:57;13.48;;;5.22;;
13493;SDS011;6819;50.886;4.332;2024-02-14T02:23:23;8.13;;;4.72;;
13493;SDS011;6819;50.886;4.332;2024-02-14T02:25:49;8.63;;;4.72;;
13493;SDS011;6819;50.886;4.332;2024-02-14T02:28:15;8.00;;;4.50;;
13493;SDS011;6819;50.886;4.332;2024-02-14T02:30:41;8.63;;;4.65;;
13493;SDS011;6819;50.886;4.332;2024-02-14T02:33:07;9.38;;;4.80;;
13493;SDS011;6819;50.886;4.332;2024-02-14T02:35:33;7.15;;;4.00;;
13493;SDS011;6819;50.886;4.332;2024-02-14T02:37:59;7.60;;;3.97;;
13493;SDS011;6819;50.886;4.332;2024-02-14T02:40:25;9.07;;;4.53;;
13493;SDS011;6819;50.886;4.332;2024-02-14T02:42:52;13.15;;;4.70;;
13493;SDS011;6819;50.886;4.332;2024-02-14T02:45:19;7.90;;;4.40;;
13493;SDS011;6819;50.886;4.332;2024-02-14T02:47:45;11.10;;;4.38;;
13493;SDS011;6819;50.886;4.332;2024-02-14T02:50:11;11.18;;;4.32;;
13493;SDS011;6819;50.886;4.332;2024-02-14T02:52:37;6.75;;;4.10;;
13493;SDS011;6819;50.886;4.332;2024-02-14T02:55:03;7.10;;;4.07;;
13493;SDS011;6819;50.886;4.332;2024-02-14T02:57:30;8.40;;;4.28;;
13493;SDS011;6819;50.886;4.332;2024-02-14T02:59:57;12.07;;;5.25;;
13493;SDS011;6819;50.886;4.332;2024-02-14T03:02:23;9.57;;;4.30;;
13493;SDS011;6819;50.886;4.332;2024-02-14T03:04:50;9.10;;;5.05;;
13493;SDS011;6819;50.886;4.332;2024-02-14T03:07:17;8.05;;;4.15;;
13493;SDS011;6819;50.886;4.332;2024-02-14T03:09:44;6.68;;;4.32;;
13493;SDS011;6819;50.886;4.332;2024-02-14T03:12:10;7.95;;;4.07;;
13493;SDS011;6819;50.886;4.332;2024-02-14T03:14:35;7.88;;;4.78;;
13493;SDS011;6819;50.886;4.332;2024-02-14T03:17:02;6.60;;;4.00;;
13493;SDS011;6819;50.886;4.332;2024-02-14T03:19:28;9.13;;;4.38;;
13493;SDS011;6819;50.886;4.332;2024-02-14T03:21:55;7.57;;;4.00;;
13493;SDS011;6819;50.886;4.332;2024-02-14T03:24:20;8.48;;;4.10;;
13493;SDS011;6819;50.886;4.332;2024-02-14T03:26:46;6.57;;;4.22;;
13493;SDS011;6819;50.886;4.332;2024-02-14T03:29:12;7.05;;;4.65;;
13493;SDS011;6819;50.886;4.332;2024-02-14T03:31:38;9.30;;;4.35;;
13493;SDS011;6819;50.886;4.332;2024-02-14T03:34:04;8.90;;;4.75;;
13493;SDS011;6819;50.886;4.332;2024-02-14T03:36:30;7.70;;;4.80;;
13493;SDS011;6819;50.886;4.332;2024-02-14T03:38:57;7.45;;;4.82;;
13493;SDS011;6819;50.886;4.332;2024-02-14T03:41:24;7.63;;;4.32;;
13493;SDS011;6819;50.886;4.332;2024-02-14T03:43:49;9.07;;;5.05;;
13493;SDS011;6819;50.886;4.332;2024-02-14T03:46:17;8.18;;;4.75;;
13493;SDS011;6819;50.886;4.332;2024-02-14T03:48:47;8.48;;;4.55;;
13493;SDS011;6819;50.886;4.332;2024-02-14T03:51:13;8.38;;;4.90;;
13493;SDS011;6819;50.886;4.332;2024-02-14T03:53:39;10.23;;;4.70;;
13493;SDS011;6819;50.886;4.332;2024-02-14T03:56:04;7.13;;;4.88;;
13493;SDS011;6819;50.886;4.332;2024-02-14T03:58:32;7.63;;;4.95;;
13493;SDS011;6819;50.886;4.332;2024-02-14T04:01:02;10.57;;;4.43;;
13493;SDS011;6819;50.886;4.332;2024-02-14T04:03:28;8.45;;;4.78;;
13493;SDS011;6819;50.886;4.332;2024-02-14T04:05:54;9.05;;;5.32;;
13493;SDS011;6819;50.886;4.332;2024-02-14T04:08:20;8.43;;;4.60;;
13493;SDS011;6819;50.886;4.332;2024-02-14T04:10:47;9.07;;;5.43;;
13493;SDS011;6819;50.886;4.332;2024-02-14T04:13:14;9.13;;;5.95;;
13493;SDS011;6819;50.886;4.332;2024-02-14T04:15:40;10.02;;;6.00;;
13493;SDS011;6819;50.886;4.332;2024-02-14T04:18:07;12.38;;;5.40;;
13493;SDS011;6819;50.886;4.332;2024-02-14T04:20:34;11.57;;;6.10;;
13493;SDS011;6819;50.886;4.332;2024-02-14T04:23:00;10.27;;;5.65;;
13493;SDS011;6819;50.886;4.332;2024-02-14T04:25:25;8.38;;;5.68;;
13493;SDS011;6819;50.886;4.332;2024-02-14T04:27:51;7.97;;;5.53;;
13493;SDS011;6819;50.886;4.332;2024-02-14T04:30:16;9.73;;;5.78;;
13493;SDS011;6819;50.886;4.332;2024-02-14T04:32:42;12.00;;;5.40;;
13493;SDS011;6819;50.886;4.332;2024-02-14T04:35:08;8.95;;;5.57;;
13493;SDS011;6819;50.886;4.332;2024-02-14T04:37:34;13.25;;;6.30;;
13493;SDS011;6819;50.886;4.332;2024-02-14T04:40:01;12.77;;;5.63;;
13493;SDS011;6819;50.886;4.332;2024-02-14T04:42:29;11.13;;;5.72;;
13493;SDS011;6819;50.886;4.332;2024-02-14T04:44:55;9.75;;;5.63;;
13493;SDS011;6819;50.886;4.332;2024-02-14T04:47:21;10.32;;;5.38;;
13493;SDS011;6819;50.886;4.332;2024-02-14T04:49:47;9.93;;;5.43;;
13493;SDS011;6819;50.886;4.332;2024-02-14T04:52:12;15.27;;;6.13;;
13493;SDS011;6819;50.886;4.332;2024-02-14T04:54:38;15.95;;;5.93;;
13493;SDS011;6819;50.886;4.332;2024-02-14T04:57:03;12.02;;;5.78;;
13493;SDS011;6819;50.886;4.332;2024-02-14T04:59:30;9.93;;;5.57;;
13493;SDS011;6819;50.886;4.332;2024-02-14T05:01:55;12.05;;;5.80;;
13493;SDS011;6819;50.886;4.332;2024-02-14T05:04:21;9.32;;;6.22;;
13493;SDS011;6819;50.886;4.332;2024-02-14T05:06:47;10.02;;;5.57;;
13493;SDS011;6819;50.886;4.332;2024-02-14T05:09:15;12.15;;;6.13;;
13493;SDS011;6819;50.886;4.332;2024-02-14T05:11:41;13.15;;;6.65;;
13493;SDS011;6819;50.886;4.332;2024-02-14T05:14:06;10.88;;;6.25;;
13493;SDS011;6819;50.886;4.332;2024-02-14T05:16:32;9.88;;;6.10;;
13493;SDS011;6819;50.886;4.332;2024-02-14T05:18:58;10.27;;;6.38;;
13493;SDS011;6819;50.886;4.332;2024-02-14T05:21:24;9.25;;;5.68;;
13493;SDS011;6819;50.886;4.332;2024-02-14T05:23:49;12.70;;;6.43;;
13493;SDS011;6819;50.886;4.332;2024-02-14T05:26:15;14.60;;;6.35;;
13493;SDS011;6819;50.886;4.332;2024-02-14T05:28:41;11.57;;;5.50;;
13493;SDS011;6819;50.886;4.332;2024-02-14T05:31:07;12.32;;;6.15;;
13493;SDS011;6819;50.886;4.332;2024-02-14T05:33:33;13.13;;;6.13;;
13493;SDS011;6819;50.886;4.332;2024-02-14T05:35:58;10.30;;;5.47;;
13493;SDS011;6819;50.886;4.332;2024-02-14T05:38:24;9.93;;;5.82;;
13493;SDS011;6819;50.886;4.332;2024-02-14T05:40:50;12.40;;;5.95;;
13493;SDS011;6819;50.886;4.332;2024-02-14T05:43:15;17.67;;;7.03;;
13493;SDS011;6819;50.886;4.332;2024-02-14T05:45:43;11.90;;;5.65;;
13493;SDS011;6819;50.886;4.332;2024-02-14T05:48:08;13.20;;;6.00;;
13493;SDS011;6819;50.886;4.332;2024-02-14T05:50:34;10.23;;;5.68;;
13493;SDS011;6819;50.886;4.332;2024-02-14T05:53:00;11.13;;;5.90;;
13493;SDS011;6819;50.886;4.332;2024-02-14T05:55:26;16.45;;;5.70;;
13493;SDS011;6819;50.886;4.332;2024-02-14T05:57:52;14.13;;;5.95;;
13493;SDS011;6819;50.886;4.332;2024-02-14T06:00:18;12.50;;;6.22;;
13493;SDS011;6819;50.886;4.332;2024-02-14T06:02:45;11.95;;;5.50;;
13493;SDS011;6819;50.886;4.332;2024-02-14T06:05:14;15.63;;;6.38;;
13493;SDS011;6819;50.886;4.332;2024-02-14T06:07:40;11.65;;;5.40;;
13493;SDS011;6819;50.886;4.332;2024-02-14T06:10:07;11.35;;;5.65;;
13493;SDS011;6819;50.886;4.332;2024-02-14T06:12:33;13.43;;;5.53;;
13493;SDS011;6819;50.886;4.332;2024-02-14T06:15:02;15.98;;;5.82;;
13493;SDS011;6819;50.886;4.332;2024-02-14T06:17:28;15.57;;;6.53;;
13493;SDS011;6819;50.886;4.332;2024-02-14T06:19:54;14.23;;;5.72;;
13493;SDS011;6819;50.886;4.332;2024-02-14T06:22:19;13.68;;;5.72;;
13493;SDS011;6819;50.886;4.332;2024-02-14T06:24:46;15.82;;;6.10;;
13493;SDS011;6819;50.886;4.332;2024-02-14T06:27:15;16.08;;;5.97;;
13493;SDS011;6819;50.886;4.332;2024-02-14T06:29:44;17.25;;;6.78;;
13493;SDS011;6819;50.886;4.332;2024-02-14T06:32:12;18.13;;;6.90;;
13493;SDS011;6819;50.886;4.332;2024-02-14T06:34:38;13.52;;;6.18;;
13493;SDS011;6819;50.886;4.332;2024-02-14T06:37:04;20.98;;;6.32;;
13493;SDS011;6819;50.886;4.332;2024-02-14T06:39:29;18.13;;;6.15;;
13493;SDS011;6819;50.886;4.332;2024-02-14T06:41:55;18.60;;;6.20;;
13493;SDS011;6819;50.886;4.332;2024-02-14T06:44:22;13.68;;;5.80;;
13493;SDS011;6819;50.886;4.332;2024-02-14T06:46:51;13.70;;;6.25;;
13493;SDS011;6819;50.886;4.332;2024-02-14T06:49:17;15.00;;;6.20;;
13493;SDS011;6819;50.886;4.332;2024-02-14T06:51:42;16.17;;;5.97;;
13493;SDS011;6819;50.886;4.332;2024-02-14T06:54:08;16.83;;;6.18;;
13493;SDS011;6819;50.886;4.332;2024-02-14T06:56:35;16.58;;;5.35;;
13493;SDS011;6819;50.886;4.332;2024-02-14T06:59:00;15.93;;;6.07;;
13493;SDS011;6819;50.886;4.332;2024-02-14T07:01:27;13.25;;;5.32;;
13493;SDS011;6819;50.886;4.332;2024-02-14T07:03:53;11.40;;;6.00;;
13493;SDS011;6819;50.886;4.332;2024-02-14T07:06:19;16.88;;;5.95;;
13493;SDS011;6819;50.886;4.332;2024-02-14T07:08:45;13.52;;;5.22;;
13493;SDS011;6819;50.886;4.332;2024-02-14T07:11:12;13.27;;;6.35;;
13493;SDS011;6819;50.886;4.332;2024-02-14T07:13:38;14.02;;;5.72;;
13493;SDS011;6819;50.886;4.332;2024-02-14T07:16:04;17.33;;;6.30;;
13493;SDS011;6819;50.886;4.332;2024-02-14T07:18:30;15.88;;;6.05;;
13493;SDS011;6819;50.886;4.332;2024-02-14T07:20:55;15.75;;;6.07;;
13493;SDS011;6819;50.886;4.332;2024-02-14T07:23:21;14.27;;;6.55;;
13493;SDS011;6819;50.886;4.332;2024-02-14T07:25:47;17.67;;;6.00;;
13493;SDS011;6819;50.886;4.332;2024-02-14T07:28:12;21.50;;;7.07;;
13493;SDS011;6819;50.886;4.332;2024-02-14T07:30:38;14.77;;;6.57;;
13493;SDS011;6819;50.886;4.332;2024-02-14T07:33:04;18.08;;;6.10;;
13493;SDS011;6819;50.886;4.332;2024-02-14T07:35:29;13.35;;;6.10;;
13493;SDS011;6819;50.886;4.332;2024-02-14T07:37:55;16.02;;;6.00;;
13493;SDS011;6819;50.886;4.332;2024-02-14T07:40:21;16.48;;;5.93;;
13493;SDS011;6819;50.886;4.332;2024-02-14T07:42:47;14.27;;;6.30;;
13493;SDS011;6819;50.886;4.332;2024-02-14T07:45:14;18.80;;;6.95;;
13493;SDS011;6819;50.886;4.332;2024-02-14T07:47:40;19.70;;;6.82;;
13493;SDS011;6819;50.886;4.332;2024-02-14T07:50:06;14.13;;;6.65;;
13493;SDS011;6819;50.886;4.332;2024-02-14T07:52:32;16.50;;;6.22;;
13493;SDS011;6819;50.886;4.332;2024-02-14T07:54:58;17.80;;;7.00;;
13493;SDS011;6819;50.886;4.332;2024-02-14T07:57:24;20.25;;;5.75;;
13493;SDS011;6819;50.886;4.332;2024-02-14T07:59:53;14.52;;;6.55;;
13493;SDS011;6819;50.886;4.332;2024-02-14T08:02:19;17.23;;;5.82;;
13493;SDS011;6819;50.886;4.332;2024-02-14T08:04:45;14.55;;;5.75;;
13493;SDS011;6819;50.886;4.332;2024-02-14T08:07:11;13.05;;;5.45;;
13493;SDS011;6819;50.886;4.332;2024-02-14T08:09:37;17.45;;;6.28;;
13493;SDS011;6819;50.886;4.332;2024-02-14T08:12:04;16.05;;;7.47;;
13493;SDS011;6819;50.886;4.332;2024-02-14T08:14:30;11.07;;;6.20;;
13493;SDS011;6819;50.886;4.332;2024-02-14T08:16:56;21.65;;;6.57;;
13493;SDS011;6819;50.886;4.332;2024-02-14T08:19:22;16.15;;;6.80;;
13493;SDS011;6819;50.886;4.332;2024-02-14T08:21:47;19.80;;;7.38;;
13493;SDS011;6819;50.886;4.332;2024-02-14T08:24:13;15.93;;;6.28;;
13493;SDS011;6819;50.886;4.332;2024-02-14T08:26:38;20.33;;;7.45;;
13493;SDS011;6819;50.886;4.332;2024-02-14T08:29:04;18.08;;;7.30;;
13493;SDS011;6819;50.886;4.332;2024-02-14T08:31:30;21.55;;;7.20;;
13493;SDS011;6819;50.886;4.332;2024-02-14T08:33:56;17.33;;;6.90;;
13493;SDS011;6819;50.886;4.332;2024-02-14T08:36:21;21.30;;;7.78;;
13493;SDS011;6819;50.886;4.332;2024-02-14T08:38:47;23.02;;;7.32;;
13493;SDS011;6819;50.886;4.332;2024-02-14T08:41:13;18.92;;;7.45;;
13493;SDS011;6819;50.886;4.332;2024-02-14T08:43:39;24.00;;;7.18;;
13493;SDS011;6819;50.886;4.332;2024-02-14T08:46:09;15.43;;;7.13;;
13493;SDS011;6819;50.886;4.332;2024-02-14T08:48:36;18.85;;;7.50;;
13493;SDS011;6819;50.886;4.332;2024-02-14T08:51:06;20.10;;;7.05;;
13493;SDS011;6819;50.886;4.332;2024-02-14T08:53:34;16.55;;;7.10;;
13493;SDS011;6819;50.886;4.332;2024-02-14T08:56:00;15.27;;;7.03;;
13493;SDS011;6819;50.886;4.332;2024-02-14T08:58:26;19.65;;;7.07;;
13493;SDS011;6819;50.886;4.332;2024-02-14T09:00:51;17.48;;;7.25;;
13493;SDS011;6819;50.886;4.332;2024-02-14T09:03:18;20.35;;;6.90;;
13493;SDS011;6819;50.886;4.332;2024-02-14T09:05:44;21.33;;;7.45;;
13493;SDS011;6819;50.886;4.332;2024-02-14T09:08:11;16.35;;;6.68;;
13493;SDS011;6819;50.886;4.332;2024-02-14T09:10:37;12.00;;;6.70;;
13493;SDS011;6819;50.886;4.332;2024-02-14T09:13:04;13.70;;;7.25;;
13493;SDS011;6819;50.886;4.332;2024-02-14T09:15:32;15.43;;;7.60;;
13493;SDS011;6819;50.886;4.332;2024-02-14T09:17:58;16.65;;;7.03;;
13493;SDS011;6819;50.886;4.332;2024-02-14T09:20:25;13.73;;;7.03;;
13493;SDS011;6819;50.886;4.332;2024-02-14T09:22:51;11.13;;;6.03;;
13493;SDS011;6819;50.886;4.332;2024-02-14T09:25:18;15.20;;;6.80;;
13493;SDS011;6819;50.886;4.332;2024-02-14T09:27:44;17.48;;;7.28;;
13493;SDS011;6819;50.886;4.332;2024-02-14T09:30:12;19.33;;;7.53;;
13493;SDS011;6819;50.886;4.332;2024-02-14T09:32:38;17.13;;;7.28;;
13493;SDS011;6819;50.886;4.332;2024-02-14T09:35:04;14.68;;;7.38;;
13493;SDS011;6819;50.886;4.332;2024-02-14T09:37:31;14.02;;;7.07;;
13493;SDS011;6819;50.886;4.332;2024-02-14T09:39:57;15.70;;;7.22;;
13493;SDS011;6819;50.886;4.332;2024-02-14T09:42:28;13.60;;;7.28;;
13493;SDS011;6819;50.886;4.332;2024-02-14T09:45:08;12.18;;;7.07;;
13493;SDS011;6819;50.886;4.332;2024-02-14T09:47:34;20.02;;;6.72;;
13493;SDS011;6819;50.886;4.332;2024-02-14T09:50:02;11.75;;;6.47;;
13493;SDS011;6819;50.886;4.332;2024-02-14T09:52:29;13.20;;;6.72;;
13493;SDS011;6819;50.886;4.332;2024-02-14T09:54:58;17.25;;;6.97;;
13493;SDS011;6819;50.886;4.332;2024-02-14T09:57:24;13.98;;;6.68;;
13493;SDS011;6819;50.886;4.332;2024-02-14T09:59:51;23.40;;;8.52;;
13493;SDS011;6819;50.886;4.332;2024-02-14T10:02:18;12.82;;;6.13;;
13493;SDS011;6819;50.886;4.332;2024-02-14T10:04:45;13.68;;;6.50;;
13493;SDS011;6819;50.886;4.332;2024-02-14T10:07:10;12.38;;;7.07;;
13493;SDS011;6819;50.886;4.332;2024-02-14T10:09:41;17.55;;;6.82;;
13493;SDS011;6819;50.886;4.332;2024-02-14T10:12:08;15.43;;;6.88;;
13493;SDS011;6819;50.886;4.332;2024-02-14T10:14:34;14.73;;;6.32;;
13493;SDS011;6819;50.886;4.332;2024-02-14T10:17:03;17.00;;;6.93;;
13493;SDS011;6819;50.886;4.332;2024-02-14T10:19:29;14.27;;;5.80;;
13493;SDS011;6819;50.886;4.332;2024-02-14T10:21:58;16.52;;;6.75;;
13493;SDS011;6819;50.886;4.332;2024-02-14T10:24:29;15.02;;;6.43;;
13493;SDS011;6819;50.886;4.332;2024-02-14T10:26:56;14.00;;;5.93;;
13493;SDS011;6819;50.886;4.332;2024-02-14T10:29:24;13.75;;;6.28;;
13493;SDS011;6819;50.886;4.332;2024-02-14T10:31:50;13.00;;;5.97;;
13493;SDS011;6819;50.886;4.332;2024-02-14T10:34:17;11.65;;;6.03;;
13493;SDS011;6819;50.886;4.332;2024-02-14T10:36:45;16.10;;;6.07;;
13493;SDS011;6819;50.886;4.332;2024-02-14T10:39:12;10.10;;;5.10;;
13493;SDS011;6819;50.886;4.332;2024-02-14T10:41:40;11.40;;;5.50;;
13493;SDS011;6819;50.886;4.332;2024-02-14T10:44:06;13.50;;;5.22;;
13493;SDS011;6819;50.886;4.332;2024-02-14T10:46:33;13.43;;;5.40;;
13493;SDS011;6819;50.886;4.332;2024-02-14T10:49:05;15.23;;;6.32;;
13493;SDS011;6819;50.886;4.332;2024-02-14T10:51:32;12.88;;;6.10;;
13493;SDS011;6819;50.886;4.332;2024-02-14T10:54:00;13.45;;;5.90;;
13493;SDS011;6819;50.886;4.332;2024-02-14T10:56:28;11.95;;;5.38;;
13493;SDS011;6819;50.886;4.332;2024-02-14T10:58:57;11.55;;;5.15;;
13493;SDS011;6819;50.886;4.332;2024-02-14T11:01:28;11.13;;;5.22;;
13493;SDS011;6819;50.886;4.332;2024-02-14T11:04:00;11.45;;;4.65;;
13493;SDS011;6819;50.886;4.332;2024-02-14T11:06:29;12.45;;;6.03;;
13493;SDS011;6819;50.886;4.332;2024-02-14T11:08:56;11.45;;;5.55;;
13493;SDS011;6819;50.886;4.332;2024-02-14T11:11:22;10.20;;;5.00;;
13493;SDS011;6819;50.886;4.332;2024-02-14T11:13:53;14.63;;;5.63;;
13493;SDS011;6819;50.886;4.332;2024-02-14T11:16:22;9.27;;;4.53;;
13493;SDS011;6819;50.886;4.332;2024-02-14T11:18:50;13.57;;;5.05;;
13493;SDS011;6819;50.886;4.332;2024-02-14T11:21:16;12.68;;;5.43;;
13493;SDS011;6819;50.886;4.332;2024-02-14T11:23:54;11.32;;;4.75;;
13493;SDS011;6819;50.886;4.332;2024-02-14T11:26:20;10.50;;;5.00;;
13493;SDS011;6819;50.886;4.332;2024-02-14T11:28:48;9.07;;;5.03;;
13493;SDS011;6819;50.886;4.332;2024-02-14T11:31:16;8.20;;;4.38;;
13493;SDS011;6819;50.886;4.332;2024-02-14T11:33:42;8.32;;;4.68;;
13493;SDS011;6819;50.886;4.332;2024-02-14T11:36:11;9.10;;;4.40;;
13493;SDS011;6819;50.886;4.332;2024-02-14T11:38:40;11.23;;;5.03;;
13493;SDS011;6819;50.886;4.332;2024-02-14T11:41:06;8.77;;;5.20;;
13493;SDS011;6819;50.886;4.332;2024-02-14T11:43:31;6.45;;;4.22;;
13493;SDS011;6819;50.886;4.332;2024-02-14T11:45:57;6.32;;;4.03;;
13493;SDS011;6819;50.886;4.332;2024-02-14T11:48:23;7.97;;;4.90;;
13493;SDS011;6819;50.886;4.332;2024-02-14T11:50:49;6.70;;;4.63;;
13493;SDS011;6819;50.886;4.332;2024-02-14T11:53:17;10.85;;;4.93;;
13493;SDS011;6819;50.886;4.332;2024-02-14T11:55:44;9.48;;;4.47;;
13493;SDS011;6819;50.886;4.332;2024-02-14T11:58:12;7.85;;;5.72;;
13493;SDS011;6819;50.886;4.332;2024-02-14T12:00:39;7.35;;;4.85;;
13493;SDS011;6819;50.886;4.332;2024-02-14T12:03:23;9.25;;;5.30;;
13493;SDS011;6819;50.886;4.332;2024-02-14T12:05:51;7.38;;;5.40;;
13493;SDS011;6819;50.886;4.332;2024-02-14T12:08:18;10.15;;;5.43;;
13493;SDS011;6819;50.886;4.332;2024-02-14T12:10:45;9.32;;;4.88;;
13493;SDS011;6819;50.886;4.332;2024-02-14T12:13:13;7.63;;;4.93;;
13493;SDS011;6819;50.886;4.332;2024-02-14T12:15:49;9.90;;;5.38;;
13493;SDS011;6819;50.886;4.332;2024-02-14T12:18:16;10.48;;;5.10;;
13493;SDS011;6819;50.886;4.332;2024-02-14T12:20:44;8.98;;;4.93;;
13493;SDS011;6819;50.886;4.332;2024-02-14T12:23:14;9.10;;;4.85;;
13493;SDS011;6819;50.886;4.332;2024-02-14T12:25:43;8.00;;;4.70;;
13493;SDS011;6819;50.886;4.332;2024-02-14T12:28:20;8.05;;;5.05;;
13493;SDS011;6819;50.886;4.332;2024-02-14T12:30:50;7.35;;;5.07;;
13493;SDS011;6819;50.886;4.332;2024-02-14T12:33:21;10.15;;;4.90;;
13493;SDS011;6819;50.886;4.332;2024-02-14T12:35:48;12.82;;;5.22;;
13493;SDS011;6819;50.886;4.332;2024-02-14T12:38:16;6.35;;;4.70;;
13493;SDS011;6819;50.886;4.332;2024-02-14T12:40:42;8.98;;;4.55;;
13493;SDS011;6819;50.886;4.332;2024-02-14T12:43:11;8.60;;;4.68;;
13493;SDS011;6819;50.886;4.332;2024-02-14T12:45:38;10.27;;;4.70;;
13493;SDS011;6819;50.886;4.332;2024-02-14T12:48:08;9.23;;;4.85;;
13493;SDS011;6819;50.886;4.332;2024-02-14T12:50:35;8.65;;;4.70;;
13493;SDS011;6819;50.886;4.332;2024-02-14T12:53:02;11.18;;;5.22;;
13493;SDS011;6819;50.886;4.332;2024-02-14T12:55:37;8.93;;;4.70;;
13493;SDS011;6819;50.886;4.332;2024-02-14T12:58:03;9.75;;;4.53;;
13493;SDS011;6819;50.886;4.332;2024-02-14T13:00:28;9.68;;;5.22;;
13493;SDS011;6819;50.886;4.332;2024-02-14T13:02:57;7.47;;;5.13;;
13493;SDS011;6819;50.886;4.332;2024-02-14T13:05:23;10.77;;;5.35;;
13493;SDS011;6819;50.886;4.332;2024-02-14T13:07:50;9.48;;;4.68;;
13493;SDS011;6819;50.886;4.332;2024-02-14T13:10:16;9.48;;;4.65;;
13493;SDS011;6819;50.886;4.332;2024-02-14T13:12:43;12.93;;;4.65;;
13493;SDS011;6819;50.886;4.332;2024-02-14T13:15:10;9.05;;;4.30;;
13493;SDS011;6819;50.886;4.332;2024-02-14T13:17:36;9.07;;;4.03;;
13493;SDS011;6819;50.886;4.332;2024-02-14T13:20:02;7.68;;;3.75;;
13493;SDS011;6819;50.886;4.332;2024-02-14T13:22:27;8.45;;;4.25;;
13493;SDS011;6819;50.886;4.332;2024-02-14T13:24:53;9.05;;;4.22;;
13493;SDS011;6819;50.886;4.332;2024-02-14T13:27:19;7.93;;;4.03;;
13493;SDS011;6819;50.886;4.332;2024-02-14T13:29:48;5.07;;;3.70;;
13493;SDS011;6819;50.886;4.332;2024-02-14T13:32:14;7.50;;;3.90;;
13493;SDS011;6819;50.886;4.332;2024-02-14T13:34:40;7.57;;;4.45;;
13493;SDS011;6819;50.886;4.332;2024-02-14T13:37:06;7.03;;;3.58;;
13493;SDS011;6819;50.886;4.332;2024-02-14T13:39:32;6.40;;;3.55;;
13493;SDS011;6819;50.886;4.332;2024-02-14T13:41:57;4.60;;;2.92;;
13493;SDS011;6819;50.886;4.332;2024-02-14T13:44:24;5.82;;;3.50;;
13493;SDS011;6819;50.886;4.332;2024-02-14T13:46:50;9.35;;;3.78;;
13493;SDS011;6819;50.886;4.332;2024-02-14T13:49:18;6.00;;;3.30;;
13493;SDS011;6819;50.886;4.332;2024-02-14T13:51:48;13.80;;;3.40;;
13493;SDS011;6819;50.886;4.332;2024-02-14T13:54:15;6.28;;;3.80;;
13493;SDS011;6819;50.886;4.332;2024-02-14T13:56:41;4.85;;;2.85;;
13493;SDS011;6819;50.886;4.332;2024-02-14T13:59:06;6.43;;;3.03;;
13493;SDS011;6819;50.886;4.332;2024-02-14T14:01:32;5.32;;;3.08;;
13493;SDS011;6819;50.886;4.332;2024-02-14T14:03:58;4.43;;;3.05;;
13493;SDS011;6819;50.886;4.332;2024-02-14T14:06:23;7.13;;;3.55;;
13493;SDS011;6819;50.886;4.332;2024-02-14T14:08:49;8.65;;;4.20;;
13493;SDS011;6819;50.886;4.332;2024-02-14T14:11:16;5.50;;;3.10;;
13493;SDS011;6819;50.886;4.332;2024-02-14T14:13:42;4.13;;;3.35;;
13493;SDS011;6819;50.886;4.332;2024-02-14T14:16:07;6.50;;;3.60;;
13493;SDS011;6819;50.886;4.332;2024-02-14T14:18:34;7.60;;;3.38;;
13493;SDS011;6819;50.886;4.332;2024-02-14T14:21:00;4.68;;;3.15;;
13493;SDS011;6819;50.886;4.332;2024-02-14T14:23:26;5.75;;;3.17;;
13493;SDS011;6819;50.886;4.332;2024-02-14T14:25:52;10.07;;;3.40;;
13493;SDS011;6819;50.886;4.332;2024-02-14T14:28:17;7.05;;;3.17;;
13493;SDS011;6819;50.886;4.332;2024-02-14T14:30:49;8.25;;;3.22;;
13493;SDS011;6819;50.886;4.332;2024-02-14T14:33:21;6.25;;;2.88;;
13493;SDS011;6819;50.886;4.332;2024-02-14T14:35:47;6.38;;;3.55;;
13493;SDS011;6819;50.886;4.332;2024-02-14T14:38:17;6.55;;;3.58;;
13493;SDS011;6819;50.886;4.332;2024-02-14T14:40:43;8.15;;;3.17;;
13493;SDS011;6819;50.886;4.332;2024-02-14T14:43:11;8.00;;;4.15;;
13493;SDS011;6819;50.886;4.332;2024-02-14T14:45:37;8.02;;;3.55;;
13493;SDS011;6819;50.886;4.332;2024-02-14T14:48:03;11.30;;;3.00;;
13493;SDS011;6819;50.886;4.332;2024-02-14T14:50:33;6.93;;;3.22;;